Time;durP1;ratioP1;P1;durP2;ratioP2;P2;SDS_P1;SDS_P2;PMS_P1;PMS_P2;Temp;Humidity;BMP_temperature;BMP_pressure;BME280_temperature;BME280_humidity;BME280_pressure;Samples;Min_cycle;Max_cycle;Signal;HPM_P1;HPM_P2
2021/05/22 00:00:43;;;;;;;2.80;1.47;;;;;;;;;;5024337;28;20228;-74
2021/05/22 00:03:09;;;;;;;3.73;1.27;;;;;;;;;;5025395;28;20794;-74
2021/05/22 00:05:36;;;;;;;2.13;1.30;;;;;;;;;;5026850;28;20188;-74
2021/05/22 00:08:02;;;;;;;3.70;1.37;;;;;;;;;;5026545;28;20191;-74
2021/05/22 00:10:28;;;;;;;2.00;1.47;;;;;;;;;;5022934;28;20205;-74
2021/05/22 00:12:54;;;;;;;1.40;1.20;;;;;;;;;;5028316;28;20193;-74
2021/05/22 00:15:20;;;;;;;1.67;1.10;;;;;;;;;;5026162;28;20222;-73
2021/05/22 00:17:46;;;;;;;3.97;1.50;;;;;;;;;;5022369;28;20192;-73
2021/05/22 00:20:13;;;;;;;1.30;1.20;;;;;;;;;;5021603;28;20218;-76
2021/05/22 00:22:42;;;;;;;1.53;1.40;;;;;;;;;;5024542;28;20182;-72
2021/05/22 00:25:09;;;;;;;5.17;1.50;;;;;;;;;;5019463;28;20200;-73
2021/05/22 00:27:35;;;;;;;2.30;1.43;;;;;;;;;;5024979;28;20192;-74
2021/05/22 00:30:02;;;;;;;1.27;1.17;;;;;;;;;;5029422;28;20584;-74
2021/05/22 00:32:28;;;;;;;1.57;1.00;;;;;;;;;;5024722;28;20437;-74
2021/05/22 00:34:54;;;;;;;1.50;1.40;;;;;;;;;;5019180;28;20668;-74
2021/05/22 00:37:20;;;;;;;1.53;1.10;;;;;;;;;;5028125;28;20608;-73
2021/05/22 00:39:46;;;;;;;1.17;1.07;;;;;;;;;;5029992;28;20189;-74
2021/05/22 00:42:13;;;;;;;1.40;1.30;;;;;;;;;;5023459;28;20187;-74
2021/05/22 00:44:57;;;;;;;1.83;1.13;;;;;;;;;;5022588;28;20247;-74
2021/05/22 00:47:23;;;;;;;2.13;1.40;;;;;;;;;;5018514;28;20224;-73
2021/05/22 00:49:49;;;;;;;1.60;1.30;;;;;;;;;;5027835;28;20188;-74
2021/05/22 00:52:16;;;;;;;1.30;1.20;;;;;;;;;;5021343;28;20197;-74
2021/05/22 00:54:42;;;;;;;2.60;1.30;;;;;;;;;;5025694;28;20322;-73
2021/05/22 00:57:08;;;;;;;2.37;1.30;;;;;;;;;;5027313;28;20189;-73
2021/05/22 00:59:34;;;;;;;1.80;1.20;;;;;;;;;;5040255;28;20189;-73
2021/05/22 01:02:01;;;;;;;1.50;1.40;;;;;;;;;;5033851;28;20208;-76
2021/05/22 01:04:27;;;;;;;1.70;1.60;;;;;;;;;;5039610;28;20590;-73
2021/05/22 01:06:53;;;;;;;3.43;1.40;;;;;;;;;;5042556;28;20243;-73
2021/05/22 01:09:20;;;;;;;2.00;1.40;;;;;;;;;;5029994;28;20275;-74
2021/05/22 01:11:50;;;;;;;1.20;1.10;;;;;;;;;;5023162;28;20210;-73
2021/05/22 01:14:20;;;;;;;2.60;1.30;;;;;;;;;;5023452;28;20232;-73
2021/05/22 01:16:47;;;;;;;1.53;1.33;;;;;;;;;;5025437;28;20194;-73
2021/05/22 01:19:19;;;;;;;2.50;1.47;;;;;;;;;;5030864;28;20188;-73
2021/05/22 01:21:45;;;;;;;2.83;1.30;;;;;;;;;;5034835;28;20575;-73
2021/05/22 01:24:12;;;;;;;1.93;1.43;;;;;;;;;;5020896;28;20203;-74
2021/05/22 01:26:40;;;;;;;2.60;1.50;;;;;;;;;;5029652;28;20183;-73
2021/05/22 01:29:07;;;;;;;3.17;1.50;;;;;;;;;;5030108;28;20652;-74
2021/05/22 01:31:34;;;;;;;1.67;1.20;;;;;;;;;;5025398;28;20246;-73
2021/05/22 01:34:00;;;;;;;2.93;1.57;;;;;;;;;;5041345;28;20303;-74
2021/05/22 01:36:26;;;;;;;1.57;1.47;;;;;;;;;;5024937;28;20590;-74
2021/05/22 01:38:52;;;;;;;2.63;1.73;;;;;;;;;;5028888;28;20222;-74
2021/05/22 01:41:18;;;;;;;2.13;1.90;;;;;;;;;;5024741;28;20204;-72
2021/05/22 01:43:47;;;;;;;2.00;1.60;;;;;;;;;;5027210;28;20224;-74
2021/05/22 01:46:15;;;;;;;1.80;1.40;;;;;;;;;;5028762;28;20192;-73
2021/05/22 01:48:41;;;;;;;1.60;1.50;;;;;;;;;;5034432;28;20278;-74
2021/05/22 01:51:08;;;;;;;2.63;1.70;;;;;;;;;;5031273;28;20216;-74
2021/05/22 01:53:36;;;;;;;2.90;1.60;;;;;;;;;;5026994;28;20629;-76
2021/05/22 01:56:02;;;;;;;1.83;1.50;;;;;;;;;;5025739;28;20683;-73
2021/05/22 01:58:28;;;;;;;2.17;1.60;;;;;;;;;;5031137;28;20196;-73
2021/05/22 02:00:56;;;;;;;1.70;1.60;;;;;;;;;;5023048;28;20215;-75
2021/05/22 02:03:30;;;;;;;3.20;1.63;;;;;;;;;;5022256;28;20219;-73
2021/05/22 02:05:57;;;;;;;4.07;1.57;;;;;;;;;;5028534;28;20250;-75
2021/05/22 02:08:24;;;;;;;3.70;1.97;;;;;;;;;;5030165;28;20180;-73
2021/05/22 02:10:51;;;;;;;1.90;1.50;;;;;;;;;;5019902;28;20202;-75
2021/05/22 02:13:17;;;;;;;3.03;1.70;;;;;;;;;;5024863;28;20267;-74
2021/05/22 02:15:47;;;;;;;1.73;1.30;;;;;;;;;;5025844;28;20244;-74
2021/05/22 02:18:16;;;;;;;3.47;1.67;;;;;;;;;;5025078;28;20209;-74
2021/05/22 02:20:42;;;;;;;3.47;1.70;;;;;;;;;;5027302;28;20207;-76
2021/05/22 02:23:08;;;;;;;1.80;1.50;;;;;;;;;;5023295;28;20192;-74
2021/05/22 02:25:35;;;;;;;1.60;1.50;;;;;;;;;;5039619;28;20188;-74
2021/05/22 02:28:04;;;;;;;3.90;1.50;;;;;;;;;;5027069;28;20211;-74
2021/05/22 02:30:30;;;;;;;3.17;1.70;;;;;;;;;;5030970;28;20223;-73
2021/05/22 02:32:57;;;;;;;3.20;1.50;;;;;;;;;;5029249;28;20668;-74
2021/05/22 02:35:24;;;;;;;3.40;1.40;;;;;;;;;;5021360;28;20235;-74
2021/05/22 02:37:52;;;;;;;2.67;1.50;;;;;;;;;;5027568;28;20547;-74
2021/05/22 02:40:21;;;;;;;2.87;1.40;;;;;;;;;;5029060;28;20235;-74
2021/05/22 02:42:50;;;;;;;3.03;1.87;;;;;;;;;;5017847;28;20181;-75
2021/05/22 02:45:20;;;;;;;1.93;1.50;;;;;;;;;;5018785;28;20560;-74
2021/05/22 02:47:46;;;;;;;3.80;1.83;;;;;;;;;;5024741;28;20192;-74
2021/05/22 02:50:13;;;;;;;1.93;1.50;;;;;;;;;;5027311;28;21001;-73
2021/05/22 02:52:40;;;;;;;5.10;1.90;;;;;;;;;;5023579;28;20370;-74
2021/05/22 02:55:09;;;;;;;3.47;1.60;;;;;;;;;;5033499;28;20221;-74
2021/05/22 02:57:36;;;;;;;2.27;1.50;;;;;;;;;;5030170;28;20249;-74
2021/05/22 03:00:03;;;;;;;2.73;1.70;;;;;;;;;;5026843;28;20631;-74
2021/05/22 03:02:29;;;;;;;3.93;1.67;;;;;;;;;;5026029;28;20192;-74
2021/05/22 03:04:56;;;;;;;2.00;1.63;;;;;;;;;;5023112;28;20680;-73
2021/05/22 03:07:22;;;;;;;3.70;2.37;;;;;;;;;;5034219;28;20195;-74
2021/05/22 03:09:48;;;;;;;2.97;1.60;;;;;;;;;;5022256;28;20223;-74
2021/05/22 03:12:22;;;;;;;2.30;1.63;;;;;;;;;;5021344;28;20192;-74
2021/05/22 03:14:48;;;;;;;2.57;1.60;;;;;;;;;;5026354;28;20217;-74
2021/05/22 03:17:14;;;;;;;3.87;1.70;;;;;;;;;;5021040;28;20274;-73
2021/05/22 03:19:40;;;;;;;3.73;1.67;;;;;;;;;;5019913;28;20304;-73
2021/05/22 03:22:06;;;;;;;2.20;1.67;;;;;;;;;;5022887;28;20215;-74
2021/05/22 03:24:34;;;;;;;2.40;1.53;;;;;;;;;;5023957;28;20238;-74
2021/05/22 03:27:00;;;;;;;1.83;1.60;;;;;;;;;;5020651;28;20210;-74
2021/05/22 03:29:27;;;;;;;2.37;1.63;;;;;;;;;;5019279;28;20196;-74
2021/05/22 03:31:53;;;;;;;2.63;1.87;;;;;;;;;;5020950;28;20635;-73
2021/05/22 03:34:19;;;;;;;5.43;1.80;;;;;;;;;;5024501;28;20584;-74
2021/05/22 03:36:45;;;;;;;1.60;1.50;;;;;;;;;;5025685;28;20204;-74
2021/05/22 03:39:11;;;;;;;5.03;1.73;;;;;;;;;;5024902;28;20595;-74
2021/05/22 03:41:37;;;;;;;3.17;1.60;;;;;;;;;;5020176;28;20208;-73
2021/05/22 03:44:03;;;;;;;1.60;1.40;;;;;;;;;;5024007;28;20563;-73
2021/05/22 03:46:30;;;;;;;2.10;1.50;;;;;;;;;;5027707;28;20341;-73
2021/05/22 03:48:56;;;;;;;3.20;1.50;;;;;;;;;;5030686;28;20192;-74
2021/05/22 03:51:22;;;;;;;2.43;1.50;;;;;;;;;;5030574;28;20799;-74
2021/05/22 03:53:51;;;;;;;2.17;1.57;;;;;;;;;;5023443;28;20266;-73
2021/05/22 03:56:17;;;;;;;3.73;1.60;;;;;;;;;;5025220;28;20233;-74
2021/05/22 03:58:43;;;;;;;2.63;1.43;;;;;;;;;;5026521;28;20556;-73
2021/05/22 04:01:09;;;;;;;2.83;1.50;;;;;;;;;;5028761;28;20223;-74
2021/05/22 04:03:35;;;;;;;2.73;2.07;;;;;;;;;;5020129;28;20188;-74
2021/05/22 04:06:01;;;;;;;3.33;1.90;;;;;;;;;;5027829;28;20177;-74
2021/05/22 04:08:27;;;;;;;4.20;1.83;;;;;;;;;;5027695;28;20196;-74
2021/05/22 04:10:53;;;;;;;1.80;1.67;;;;;;;;;;5028739;28;20202;-74
2021/05/22 04:13:19;;;;;;;2.43;1.80;;;;;;;;;;5019357;28;20274;-74
2021/05/22 04:15:45;;;;;;;1.97;1.70;;;;;;;;;;5025916;28;20180;-74
2021/05/22 04:18:13;;;;;;;3.00;1.70;;;;;;;;;;5025816;28;20189;-75
2021/05/22 04:20:39;;;;;;;1.93;1.60;;;;;;;;;;5023357;28;20207;-74
2021/05/22 04:23:08;;;;;;;3.17;1.87;;;;;;;;;;5025702;28;20204;-74
2021/05/22 04:25:34;;;;;;;2.20;1.67;;;;;;;;;;5027264;28;20215;-74
2021/05/22 04:28:00;;;;;;;7.60;2.03;;;;;;;;;;5024289;28;20268;-73
2021/05/22 04:30:26;;;;;;;2.87;1.50;;;;;;;;;;5026094;28;20225;-73
2021/05/22 04:32:54;;;;;;;5.03;1.40;;;;;;;;;;5023772;28;20263;-72
2021/05/22 04:35:20;;;;;;;1.60;1.50;;;;;;;;;;5026182;28;20317;-72
2021/05/22 04:37:46;;;;;;;4.27;1.60;;;;;;;;;;5027302;28;20179;-72
2021/05/22 04:40:13;;;;;;;1.50;1.40;;;;;;;;;;5024190;28;20219;-72
2021/05/22 04:42:39;;;;;;;1.80;1.70;;;;;;;;;;5021923;28;20239;-72
2021/05/22 04:45:06;;;;;;;3.30;1.83;;;;;;;;;;5018146;28;20758;-72
2021/05/22 04:47:32;;;;;;;3.47;1.80;;;;;;;;;;5018933;28;20228;-72
2021/05/22 04:49:58;;;;;;;3.27;1.90;;;;;;;;;;5020682;28;20227;-72
2021/05/22 04:52:24;;;;;;;2.20;1.70;;;;;;;;;;5021480;28;20189;-72
2021/05/22 04:54:53;;;;;;;3.20;2.10;;;;;;;;;;5026351;28;20207;-72
2021/05/22 04:57:19;;;;;;;3.03;1.60;;;;;;;;;;5028492;28;20288;-73
2021/05/22 04:59:45;;;;;;;3.50;1.77;;;;;;;;;;5032723;28;20176;-72
2021/05/22 05:02:11;;;;;;;3.57;1.77;;;;;;;;;;5022067;28;20189;-72
2021/05/22 05:04:37;;;;;;;2.47;1.90;;;;;;;;;;5030890;28;20238;-72
2021/05/22 05:07:04;;;;;;;2.83;1.73;;;;;;;;;;5030118;28;20538;-72
2021/05/22 05:09:33;;;;;;;2.10;1.70;;;;;;;;;;5028564;28;20193;-72
2021/05/22 05:12:00;;;;;;;2.10;1.70;;;;;;;;;;5032948;28;20626;-72
2021/05/22 05:14:26;;;;;;;2.87;1.70;;;;;;;;;;5031002;28;20583;-72
2021/05/22 05:16:52;;;;;;;2.87;1.73;;;;;;;;;;5029285;28;20183;-73
2021/05/22 05:19:18;;;;;;;6.07;2.10;;;;;;;;;;5027376;28;20184;-73
2021/05/22 05:21:44;;;;;;;2.50;1.77;;;;;;;;;;5027639;28;20295;-72
2021/05/22 05:24:10;;;;;;;3.33;1.70;;;;;;;;;;5023645;28;20271;-72
2021/05/22 05:26:36;;;;;;;4.90;2.00;;;;;;;;;;5023260;28;20252;-72
2021/05/22 05:29:03;;;;;;;3.50;1.87;;;;;;;;;;5020812;28;20212;-74
2021/05/22 05:31:29;;;;;;;3.83;1.43;;;;;;;;;;5025912;28;20242;-72
2021/05/22 05:33:55;;;;;;;2.60;1.50;;;;;;;;;;5025085;28;20251;-72
2021/05/22 05:36:21;;;;;;;3.47;1.90;;;;;;;;;;5029757;28;20678;-72
2021/05/22 05:38:47;;;;;;;3.67;1.70;;;;;;;;;;5032721;28;20180;-71
2021/05/22 05:41:13;;;;;;;3.90;1.70;;;;;;;;;;5036179;28;20201;-72
2021/05/22 05:43:39;;;;;;;4.20;1.87;;;;;;;;;;5027023;28;20188;-72
2021/05/22 05:46:05;;;;;;;2.77;1.83;;;;;;;;;;5031264;28;20251;-72
2021/05/22 05:48:31;;;;;;;8.97;1.90;;;;;;;;;;5026652;28;20645;-72
2021/05/22 05:50:57;;;;;;;5.03;1.80;;;;;;;;;;5028809;28;20582;-72
2021/05/22 05:53:23;;;;;;;1.80;1.70;;;;;;;;;;5024916;28;20317;-72
2021/05/22 05:55:49;;;;;;;2.67;1.63;;;;;;;;;;5028450;28;20184;-72
2021/05/22 05:58:15;;;;;;;4.97;1.90;;;;;;;;;;5026135;28;20184;-72
2021/05/22 06:00:43;;;;;;;3.90;1.67;;;;;;;;;;5027406;28;20225;-72
2021/05/22 06:03:09;;;;;;;3.33;1.97;;;;;;;;;;5025932;28;20176;-72
2021/05/22 06:05:37;;;;;;;3.40;1.77;;;;;;;;;;5020271;28;20185;-73
2021/05/22 06:08:03;;;;;;;4.90;2.17;;;;;;;;;;5023799;28;20227;-71
2021/05/22 06:10:29;;;;;;;1.67;1.50;;;;;;;;;;5021535;28;20210;-71
2021/05/22 06:12:56;;;;;;;6.70;2.03;;;;;;;;;;5030885;28;20183;-71
2021/05/22 06:15:25;;;;;;;4.53;1.90;;;;;;;;;;5022251;28;20695;-71
2021/05/22 06:17:54;;;;;;;1.87;1.60;;;;;;;;;;5028478;28;20180;-71
2021/05/22 06:20:20;;;;;;;6.67;1.93;;;;;;;;;;5020787;28;20221;-71
2021/05/22 06:22:47;;;;;;;5.33;1.70;;;;;;;;;;5028080;28;20268;-73
2021/05/22 06:25:13;;;;;;;6.50;2.07;;;;;;;;;;5026527;28;20188;-71
2021/05/22 06:27:39;;;;;;;4.87;1.90;;;;;;;;;;5029981;28;20601;-71
2021/05/22 06:30:06;;;;;;;6.17;1.73;;;;;;;;;;5021292;28;20630;-71
2021/05/22 06:32:32;;;;;;;6.07;1.70;;;;;;;;;;5024617;28;20246;-71
2021/05/22 06:35:01;;;;;;;5.03;1.88;;;;;;;;;;5024857;28;20678;-71
2021/05/22 06:37:27;;;;;;;3.00;1.67;;;;;;;;;;5019061;28;20250;-68
2021/05/22 06:39:53;;;;;;;4.95;2.03;;;;;;;;;;5024429;28;20200;-72
2021/05/22 06:42:20;;;;;;;5.38;1.67;;;;;;;;;;5021296;28;20180;-71
2021/05/22 06:45:09;;;;;;;4.65;1.85;;;;;;;;;;5023333;28;20201;-72
2021/05/22 06:47:32;;;;;;;4.63;1.77;;;;;;;;;;5020133;28;20185;-71
2021/05/22 06:49:58;;;;;;;2.72;1.08;;;;;;;;;;5023746;28;20200;-72
2021/05/22 06:52:24;;;;;;;4.30;1.55;;;;;;;;;;5025257;28;20199;-71
2021/05/22 06:54:52;;;;;;;4.07;1.65;;;;;;;;;;5021290;28;21009;-71
2021/05/22 06:57:19;;;;;;;2.88;1.52;;;;;;;;;;5027195;28;20177;-71
2021/05/22 06:59:46;;;;;;;4.03;1.77;;;;;;;;;;5027499;28;20188;-72
2021/05/22 07:02:12;;;;;;;5.20;1.70;;;;;;;;;;5023549;28;20200;-73
2021/05/22 07:04:39;;;;;;;4.90;1.95;;;;;;;;;;5025545;28;20187;-71
2021/05/22 07:07:06;;;;;;;3.58;1.85;;;;;;;;;;5023621;28;20249;-72
2021/05/22 07:09:32;;;;;;;4.15;1.88;;;;;;;;;;5024697;28;20189;-72
2021/05/22 07:11:58;;;;;;;6.43;2.10;;;;;;;;;;5026663;28;20298;-72
2021/05/22 07:14:26;;;;;;;4.07;2.17;;;;;;;;;;5026785;28;20220;-72
2021/05/22 07:16:54;;;;;;;2.58;1.50;;;;;;;;;;5024320;28;20193;-71
2021/05/22 07:19:20;;;;;;;4.72;1.92;;;;;;;;;;5017877;28;20642;-71
2021/05/22 07:21:50;;;;;;;8.68;2.20;;;;;;;;;;5024620;28;20208;-72
2021/05/22 07:24:16;;;;;;;4.57;1.67;;;;;;;;;;5021564;28;20200;-71
2021/05/22 07:26:42;;;;;;;4.35;1.70;;;;;;;;;;5024307;28;20250;-71
2021/05/22 07:29:09;;;;;;;6.82;2.25;;;;;;;;;;5027237;28;20268;-71
2021/05/22 07:31:35;;;;;;;4.07;1.52;;;;;;;;;;5027014;28;20208;-71
2021/05/22 07:34:02;;;;;;;4.55;1.88;;;;;;;;;;5021176;28;20204;-71
2021/05/22 07:36:28;;;;;;;5.10;2.03;;;;;;;;;;5025188;28;20250;-70
2021/05/22 07:38:54;;;;;;;5.05;1.83;;;;;;;;;;5026767;28;20577;-70
2021/05/22 07:41:20;;;;;;;7.03;2.20;;;;;;;;;;5027079;28;20204;-70
2021/05/22 07:43:46;;;;;;;4.20;1.85;;;;;;;;;;5022908;28;20219;-70
2021/05/22 07:46:12;;;;;;;4.72;1.77;;;;;;;;;;5030622;28;20199;-70
2021/05/22 07:48:38;;;;;;;2.95;1.60;;;;;;;;;;5032021;28;20659;-71
2021/05/22 07:51:05;;;;;;;3.88;1.60;;;;;;;;;;5020189;28;20205;-71
2021/05/22 07:53:31;;;;;;;4.28;1.40;;;;;;;;;;5025689;28;20188;-70
2021/05/22 07:55:57;;;;;;;4.00;1.60;;;;;;;;;;5023162;28;20196;-71
2021/05/22 07:58:26;;;;;;;4.13;1.90;;;;;;;;;;5025255;28;20198;-71
2021/05/22 08:00:57;;;;;;;3.60;1.65;;;;;;;;;;5029445;28;20219;-71
2021/05/22 08:03:23;;;;;;;1.98;1.27;;;;;;;;;;5026330;28;20227;-71
2021/05/22 08:05:49;;;;;;;6.28;1.52;;;;;;;;;;5026301;28;20184;-71
2021/05/22 08:08:15;;;;;;;5.88;1.60;;;;;;;;;;5026217;28;20188;-71
2021/05/22 08:10:43;;;;;;;4.57;1.83;;;;;;;;;;5027234;28;20222;-71
2021/05/22 08:13:10;;;;;;;3.33;1.45;;;;;;;;;;5023169;28;20218;-70
2021/05/22 08:15:40;;;;;;;4.70;1.55;;;;;;;;;;5028145;28;20625;-70
2021/05/22 08:18:06;;;;;;;3.58;1.60;;;;;;;;;;5020175;28;20181;-71
2021/05/22 08:20:32;;;;;;;2.15;1.45;;;;;;;;;;5027779;28;20204;-71
2021/05/22 08:22:58;;;;;;;3.17;1.50;;;;;;;;;;5023480;28;20203;-71
2021/05/22 08:25:24;;;;;;;3.60;1.20;;;;;;;;;;5027604;28;20179;-70
2021/05/22 08:27:52;;;;;;;6.75;1.70;;;;;;;;;;5033391;28;20325;-71
2021/05/22 08:30:19;;;;;;;4.10;1.77;;;;;;;;;;5032101;28;20227;-71
2021/05/22 08:32:45;;;;;;;1.90;1.30;;;;;;;;;;5030536;28;20184;-70
2021/05/22 08:35:11;;;;;;;3.90;1.63;;;;;;;;;;5029174;28;20218;-70
2021/05/22 08:37:41;;;;;;;5.13;1.90;;;;;;;;;;5030024;28;20181;-70
2021/05/22 08:40:07;;;;;;;4.47;1.55;;;;;;;;;;5032334;28;20214;-71
2021/05/22 08:42:34;;;;;;;5.95;1.90;;;;;;;;;;5028039;28;20173;-71
2021/05/22 08:45:20;;;;;;;3.45;1.40;;;;;;;;;;5029575;28;20187;-71
2021/05/22 08:47:49;;;;;;;4.68;1.55;;;;;;;;;;5028172;28;20309;-71
2021/05/22 08:50:15;;;;;;;3.05;1.17;;;;;;;;;;5032491;28;20208;-71
2021/05/22 08:52:41;;;;;;;3.15;1.30;;;;;;;;;;5035096;28;20261;-71
2021/05/22 08:55:08;;;;;;;3.72;1.30;;;;;;;;;;5023011;28;20702;-71
2021/05/22 08:57:34;;;;;;;2.22;1.40;;;;;;;;;;5036870;28;20189;-71
2021/05/22 09:00:00;;;;;;;3.88;1.50;;;;;;;;;;5037300;28;20204;-71
2021/05/22 09:02:27;;;;;;;3.50;1.67;;;;;;;;;;5033425;28;20234;-71
2021/05/22 09:05:12;;;;;;;4.35;1.23;;;;;;;;;;5025665;28;20235;-71
2021/05/22 09:07:40;;;;;;;2.35;1.05;;;;;;;;;;5040763;28;20271;-71
2021/05/22 09:10:09;;;;;;;3.22;1.15;;;;;;;;;;5034578;28;20357;-70
2021/05/22 09:12:36;;;;;;;6.68;1.52;;;;;;;;;;5035758;28;20195;-71
2021/05/22 09:15:06;;;;;;;2.47;1.50;;;;;;;;;;5031424;28;20232;-71
2021/05/22 09:17:32;;;;;;;2.67;1.38;;;;;;;;;;5041008;28;20238;-71
2021/05/22 09:20:10;;;;;;;3.33;1.40;;;;;;;;;;5028278;28;20185;-71
2021/05/22 09:22:36;;;;;;;5.90;1.27;;;;;;;;;;5031172;28;20188;-71
2021/05/22 09:25:04;;;;;;;3.05;1.73;;;;;;;;;;5028444;28;20610;-71
2021/05/22 09:27:31;;;;;;;1.92;1.23;;;;;;;;;;5030196;28;20180;-71
2021/05/22 09:29:57;;;;;;;3.63;1.10;;;;;;;;;;5026076;28;20287;-71
2021/05/22 09:32:23;;;;;;;3.70;1.30;;;;;;;;;;5021958;28;20181;-71
2021/05/22 09:34:50;;;;;;;3.65;1.20;;;;;;;;;;5028942;28;20224;-71
2021/05/22 09:37:19;;;;;;;2.35;1.23;;;;;;;;;;5024356;28;20192;-71
2021/05/22 09:39:48;;;;;;;4.65;1.42;;;;;;;;;;5030281;28;20228;-71
2021/05/22 09:42:14;;;;;;;3.28;1.27;;;;;;;;;;5026096;28;20172;-71
2021/05/22 09:44:40;;;;;;;5.65;1.23;;;;;;;;;;5027065;28;20188;-71
2021/05/22 09:47:07;;;;;;;2.40;1.15;;;;;;;;;;5025316;28;20235;-71
2021/05/22 09:49:39;;;;;;;3.72;1.13;;;;;;;;;;5028016;28;20184;-71
2021/05/22 09:52:10;;;;;;;5.90;1.83;;;;;;;;;;5027133;28;20192;-71
2021/05/22 09:54:40;;;;;;;4.05;1.38;;;;;;;;;;5026146;28;20207;-71
2021/05/22 09:57:15;;;;;;;3.80;1.25;;;;;;;;;;5024854;28;20698;-71
2021/05/22 09:59:41;;;;;;;2.90;1.15;;;;;;;;;;5028691;28;20176;-71
2021/05/22 10:02:07;;;;;;;3.40;1.48;;;;;;;;;;5029293;28;20286;-71
2021/05/22 10:04:33;;;;;;;2.30;1.10;;;;;;;;;;5028875;28;20204;-71
2021/05/22 10:06:59;;;;;;;4.20;1.40;;;;;;;;;;5022963;28;20189;-71
2021/05/22 10:09:26;;;;;;;2.47;1.30;;;;;;;;;;5027559;28;20207;-70
2021/05/22 10:12:02;;;;;;;5.15;1.33;;;;;;;;;;5026164;28;20239;-71
2021/05/22 10:14:37;;;;;;;2.28;1.00;;;;;;;;;;5028774;28;20358;-71
2021/05/22 10:17:05;;;;;;;3.20;1.17;;;;;;;;;;5023732;28;20215;-71
2021/05/22 10:19:32;;;;;;;2.70;1.30;;;;;;;;;;5032068;28;20193;-72
2021/05/22 10:21:59;;;;;;;3.58;1.30;;;;;;;;;;5030575;28;20691;-71
2021/05/22 10:24:25;;;;;;;3.35;1.15;;;;;;;;;;5027452;28;20683;-72
2021/05/22 10:26:52;;;;;;;2.55;1.20;;;;;;;;;;5025335;28;20199;-71
2021/05/22 10:29:18;;;;;;;2.75;1.27;;;;;;;;;;5028110;28;20187;-72
2021/05/22 10:31:44;;;;;;;5.25;1.48;;;;;;;;;;5031064;28;20211;-71
2021/05/22 10:34:16;;;;;;;4.03;1.60;;;;;;;;;;5027924;28;20239;-72
2021/05/22 10:36:55;;;;;;;1.92;1.05;;;;;;;;;;5023765;28;20184;-72
2021/05/22 10:39:39;;;;;;;3.03;0.98;;;;;;;;;;5029054;28;20188;-72
2021/05/22 10:42:06;;;;;;;5.22;1.15;;;;;;;;;;5028485;28;20175;-73
2021/05/22 10:44:34;;;;;;;3.08;1.42;;;;;;;;;;5023653;28;20719;-73
2021/05/22 10:47:03;;;;;;;2.38;1.15;;;;;;;;;;5026182;28;20566;-73
2021/05/22 10:49:51;;;;;;;1.95;1.10;;;;;;;;;;5033209;28;20184;-71
2021/05/22 10:52:30;;;;;;;2.03;1.20;;;;;;;;;;5034887;28;20180;-71
2021/05/22 10:54:57;;;;;;;2.05;1.30;;;;;;;;;;5031593;28;20212;-71
2021/05/22 10:57:26;;;;;;;3.97;1.30;;;;;;;;;;5028383;28;20598;-71
2021/05/22 11:00:10;;;;;;;1.33;0.82;;;;;;;;;;5027892;28;20206;-71
2021/05/22 11:02:39;;;;;;;2.88;1.38;;;;;;;;;;5029444;28;20209;-70
2021/05/22 11:05:25;;;;;;;2.90;1.27;;;;;;;;;;5023662;28;20181;-71
2021/05/22 11:08:04;;;;;;;3.38;1.08;;;;;;;;;;5028457;28;20185;-71
2021/05/22 11:10:42;;;;;;;1.08;0.88;;;;;;;;;;5025741;28;20724;-71
2021/05/22 11:13:09;;;;;;;4.50;0.90;;;;;;;;;;5039997;28;20188;-70
2021/05/22 11:15:38;;;;;;;2.60;1.08;;;;;;;;;;5028265;28;20240;-71
2021/05/22 11:18:05;;;;;;;2.72;1.10;;;;;;;;;;5023727;28;20180;-71
2021/05/22 11:20:31;;;;;;;3.17;1.02;;;;;;;;;;5041138;28;20199;-70
2021/05/22 11:23:00;;;;;;;1.38;1.00;;;;;;;;;;5027454;28;20604;-70
2021/05/22 11:25:43;;;;;;;3.83;1.50;;;;;;;;;;5026582;28;20528;-70
2021/05/22 11:28:11;;;;;;;3.22;1.25;;;;;;;;;;5017961;28;20192;-71
2021/05/22 11:30:42;;;;;;;4.55;1.20;;;;;;;;;;5026997;28;20266;-71
2021/05/22 11:33:09;;;;;;;3.65;1.10;;;;;;;;;;5021799;28;20694;-70
2021/05/22 11:35:37;;;;;;;5.03;1.30;;;;;;;;;;5025108;28;20205;-71
2021/05/22 11:38:17;;;;;;;3.88;1.10;;;;;;;;;;5024770;28;20205;-71
2021/05/22 11:40:43;;;;;;;5.40;1.45;;;;;;;;;;5023467;28;20201;-70
2021/05/22 11:43:13;;;;;;;3.00;1.10;;;;;;;;;;5030124;28;20304;-71
2021/05/22 11:46:08;;;;;;;3.60;0.90;;;;;;;;;;5021982;28;20183;-71
2021/05/22 11:48:41;;;;;;;2.08;1.13;;;;;;;;;;5051788;28;20196;-71
2021/05/22 11:51:13;;;;;;;2.47;1.08;;;;;;;;;;5046924;28;20389;-71
2021/05/22 11:53:40;;;;;;;4.43;1.30;;;;;;;;;;5047043;28;20190;-71
2021/05/22 11:56:14;;;;;;;6.22;1.05;;;;;;;;;;5042856;28;20191;-71
2021/05/22 11:58:49;;;;;;;1.85;0.90;;;;;;;;;;5030363;28;20273;-71
2021/05/22 12:01:18;;;;;;;2.38;1.00;;;;;;;;;;5023740;28;20215;-70
2021/05/22 12:03:45;;;;;;;1.58;0.95;;;;;;;;;;5030816;28;20198;-71
2021/05/22 12:06:21;;;;;;;2.90;0.93;;;;;;;;;;5033295;28;20196;-71
2021/05/22 12:08:57;;;;;;;2.30;1.10;;;;;;;;;;5044349;28;20280;-71
2021/05/22 12:11:27;;;;;;;2.40;1.02;;;;;;;;;;5030419;28;20235;-71
2021/05/22 12:13:54;;;;;;;5.15;1.30;;;;;;;;;;5048311;28;20198;-71
2021/05/22 12:16:21;;;;;;;2.55;1.00;;;;;;;;;;5028151;28;20351;-71
2021/05/22 12:18:47;;;;;;;2.17;0.90;;;;;;;;;;5043012;28;21867;-70
2021/05/22 12:21:20;;;;;;;4.25;1.30;;;;;;;;;;5046948;28;20207;-71
2021/05/22 12:23:47;;;;;;;5.28;1.30;;;;;;;;;;5036305;28;20188;-72
2021/05/22 12:26:13;;;;;;;3.10;1.10;;;;;;;;;;5028732;28;20208;-71
2021/05/22 12:28:39;;;;;;;4.35;1.20;;;;;;;;;;5023985;28;20187;-71
2021/05/22 12:31:05;;;;;;;5.10;1.52;;;;;;;;;;5026133;28;20336;-71
2021/05/22 12:33:31;;;;;;;3.67;1.30;;;;;;;;;;5028558;28;20177;-70
2021/05/22 12:36:04;;;;;;;1.75;0.95;;;;;;;;;;5043122;28;20275;-70
2021/05/22 12:38:41;;;;;;;7.35;1.30;;;;;;;;;;5040520;28;20185;-71
2021/05/22 12:41:10;;;;;;;2.72;1.02;;;;;;;;;;5031496;28;20215;-70
2021/05/22 12:43:46;;;;;;;1.17;0.70;;;;;;;;;;5031744;28;20687;-71
2021/05/22 12:46:28;;;;;;;3.55;0.93;;;;;;;;;;5023098;28;20618;-71
2021/05/22 12:49:11;;;;;;;2.22;0.82;;;;;;;;;;5020718;28;20206;-71
2021/05/22 12:51:42;;;;;;;1.85;0.90;;;;;;;;;;5025427;28;20224;-71
2021/05/22 12:54:28;;;;;;;3.75;1.42;;;;;;;;;;5026077;28;20212;-70
2021/05/22 12:57:12;;;;;;;6.00;0.90;;;;;;;;;;5026695;28;20255;-71
2021/05/22 12:59:39;;;;;;;2.33;0.98;;;;;;;;;;5026323;28;20191;-71
2021/05/22 13:02:14;;;;;;;1.52;0.93;;;;;;;;;;5030198;28;20215;-71
2021/05/22 13:04:40;;;;;;;1.30;0.90;;;;;;;;;;5029855;28;20186;-70
2021/05/22 13:07:06;;;;;;;3.70;1.27;;;;;;;;;;5022577;28;20201;-71
2021/05/22 13:09:33;;;;;;;2.33;1.23;;;;;;;;;;5021593;28;20200;-71
2021/05/22 13:12:00;;;;;;;3.15;1.10;;;;;;;;;;5028098;28;20287;-71
2021/05/22 13:14:45;;;;;;;3.55;0.90;;;;;;;;;;5028222;28;20208;-71
2021/05/22 13:17:11;;;;;;;3.20;1.00;;;;;;;;;;5029876;28;20195;-71
2021/05/22 13:19:44;;;;;;;2.90;0.85;;;;;;;;;;5034290;28;20608;-71
2021/05/22 13:22:30;;;;;;;2.22;1.08;;;;;;;;;;5028021;28;20946;-70
2021/05/22 13:25:02;;;;;;;2.80;1.08;;;;;;;;;;5028962;28;20661;-70
2021/05/22 13:27:28;;;;;;;1.85;1.20;;;;;;;;;;5032804;28;20207;-70
2021/05/22 13:30:04;;;;;;;4.28;1.50;;;;;;;;;;5031828;28;20189;-70
2021/05/22 13:32:30;;;;;;;1.73;1.15;;;;;;;;;;5033795;28;20283;-70
2021/05/22 13:34:56;;;;;;;1.70;0.90;;;;;;;;;;5031449;28;20290;-70
2021/05/22 13:37:22;;;;;;;3.58;0.80;;;;;;;;;;5028429;28;20185;-70
2021/05/22 13:39:49;;;;;;;1.48;0.82;;;;;;;;;;5025320;28;20189;-70
2021/05/22 13:42:15;;;;;;;2.20;0.90;;;;;;;;;;5033951;28;20181;-70
2021/05/22 13:44:41;;;;;;;2.63;1.13;;;;;;;;;;5028012;28;20187;-71
2021/05/22 13:47:07;;;;;;;3.40;0.90;;;;;;;;;;5033330;28;20766;-70
2021/05/22 13:49:34;;;;;;;2.08;1.02;;;;;;;;;;5029920;28;20192;-71
2021/05/22 13:52:00;;;;;;;1.60;0.82;;;;;;;;;;5017393;28;20902;-71
2021/05/22 13:54:26;;;;;;;1.70;0.85;;;;;;;;;;5023351;28;20208;-70
2021/05/22 13:56:52;;;;;;;3.80;0.98;;;;;;;;;;5027683;28;20261;-71
2021/05/22 13:59:18;;;;;;;1.58;0.90;;;;;;;;;;5024068;28;20290;-72
2021/05/22 14:01:46;;;;;;;1.55;1.02;;;;;;;;;;5027140;28;20188;-71
2021/05/22 14:04:12;;;;;;;2.05;0.90;;;;;;;;;;5025819;28;20254;-71
2021/05/22 14:06:39;;;;;;;2.00;1.10;;;;;;;;;;5019247;28;20194;-71
2021/05/22 14:09:05;;;;;;;2.97;1.00;;;;;;;;;;5024311;28;20184;-71
2021/05/22 14:11:31;;;;;;;2.63;0.95;;;;;;;;;;5029679;28;20721;-71
2021/05/22 14:13:57;;;;;;;4.13;0.90;;;;;;;;;;5024815;28;20225;-71
2021/05/22 14:16:23;;;;;;;2.15;1.10;;;;;;;;;;5023421;28;20191;-71
2021/05/22 14:18:49;;;;;;;2.33;1.10;;;;;;;;;;5025040;28;20188;-71
2021/05/22 14:21:15;;;;;;;1.90;0.90;;;;;;;;;;5026944;28;20220;-71
2021/05/22 14:23:41;;;;;;;3.38;1.00;;;;;;;;;;5024684;28;20287;-71
2021/05/22 14:26:07;;;;;;;2.28;1.30;;;;;;;;;;5027195;28;20684;-71
2021/05/22 14:28:33;;;;;;;4.60;1.50;;;;;;;;;;5026175;28;20191;-71
2021/05/22 14:31:00;;;;;;;6.25;1.17;;;;;;;;;;5031822;28;20224;-71
2021/05/22 14:33:26;;;;;;;3.35;1.65;;;;;;;;;;5025511;28;20196;-72
2021/05/22 14:35:53;;;;;;;4.50;1.60;;;;;;;;;;5028689;28;20698;-72
2021/05/22 14:38:19;;;;;;;2.15;1.40;;;;;;;;;;5023485;28;20185;-71
2021/05/22 14:40:46;;;;;;;4.50;1.27;;;;;;;;;;5029049;28;20222;-71
2021/05/22 14:43:12;;;;;;;1.73;1.10;;;;;;;;;;5024384;28;20281;-71
2021/05/22 14:45:38;;;;;;;1.90;1.15;;;;;;;;;;5024665;28;21419;-71
2021/05/22 14:48:05;;;;;;;3.13;1.17;;;;;;;;;;5026495;28;20224;-71